Map

Track Data

SID SEASON NUMBER BASIN SUBBASIN NAME ISO_TIME NATURE LAT LON WMO_WIND WMO_PRES WMO_AGENCY TRACK_TYPE DIST2LAND LANDFALL IFLAG USA_AGENCY USA_ATCF_ID USA_LAT USA_LON USA_RECORD USA_STATUS USA_WIND USA_PRES USA_SSHS USA_R34_NE USA_R34_SE USA_R34_SW USA_R34_NW USA_R50_NE USA_R50_SE USA_R50_SW USA_R50_NW USA_R64_NE USA_R64_SE USA_R64_SW USA_R64_NW USA_POCI USA_ROCI USA_RMW USA_EYE TOKYO_LAT TOKYO_LON TOKYO_GRADE TOKYO_WIND TOKYO_PRES TOKYO_R50_DIR TOKYO_R50_LONG TOKYO_R50_SHORT TOKYO_R30_DIR TOKYO_R30_LONG TOKYO_R30_SHORT TOKYO_LAND CMA_LAT CMA_LON CMA_CAT CMA_WIND CMA_PRES HKO_LAT HKO_LON HKO_CAT HKO_WIND HKO_PRES NEWDELHI_LAT NEWDELHI_LON NEWDELHI_GRADE NEWDELHI_WIND NEWDELHI_PRES NEWDELHI_CI NEWDELHI_DP NEWDELHI_POCI REUNION_LAT REUNION_LON REUNION_TYPE REUNION_WIND REUNION_PRES REUNION_TNUM REUNION_CI REUNION_RMW REUNION_R34_NE REUNION_R34_SE REUNION_R34_SW REUNION_R34_NW REUNION_R50_NE REUNION_R50_SE REUNION_R50_SW REUNION_R50_NW REUNION_R64_NE REUNION_R64_SE REUNION_R64_SW REUNION_R64_NW BOM_LAT BOM_LON BOM_TYPE BOM_WIND BOM_PRES BOM_TNUM BOM_CI BOM_RMW BOM_R34_NE BOM_R34_SE BOM_R34_SW BOM_R34_NW BOM_R50_NE BOM_R50_SE BOM_R50_SW BOM_R50_NW BOM_R64_NE BOM_R64_SE BOM_R64_SW BOM_R64_NW BOM_ROCI BOM_POCI BOM_EYE BOM_POS_METHOD BOM_PRES_METHOD NADI_LAT NADI_LON NADI_CAT NADI_WIND NADI_PRES WELLINGTON_LAT WELLINGTON_LON WELLINGTON_WIND WELLINGTON_PRES DS824_LAT DS824_LON DS824_STAGE DS824_WIND DS824_PRES TD9636_LAT TD9636_LON TD9636_STAGE TD9636_WIND TD9636_PRES TD9635_LAT TD9635_LON TD9635_WIND TD9635_PRES TD9635_ROCI NEUMANN_LAT NEUMANN_LON NEUMANN_CLASS NEUMANN_WIND NEUMANN_PRES MLC_LAT MLC_LON MLC_CLASS MLC_WIND MLC_PRES USA_GUST BOM_GUST BOM_GUST_PER REUNION_GUST REUNION_GUST_PER USA_SEAHGT USA_SEARAD_NE USA_SEARAD_SE USA_SEARAD_SW USA_SEARAD_NW STORM_SPEED STORM_DIR
1945088S08077 1945 18 SI MM NOT_NAMED 1945-03-28 18:00:00 TS -7.60000 77.4000 main 1553 1553 O________OO___ jtwc_sh SH121945 -7.60000 77.4000 -1 -7.60000 77.4000 TC -7.60000 77.4000 1 3 272
1945088S08077 1945 18 SI MM NOT_NAMED 1945-03-28 21:00:00 TS -7.59613 77.2582 main 1556 1556 P________PP___ SH121945 -7.59501 77.2725 -1 -7.59501 77.2725 TC -7.59836 77.2296 1 3 270
1945088S08077 1945 18 SI MM NOT_NAMED 1945-03-29 00:00:00 TS -7.60246 77.0791 main 1561 1561 O________OP___ jtwc_sh SH121945 -7.60000 77.1000 -1 -7.60000 77.1000 TC -7.60738 77.0374 1 4 265
1945088S08077 1945 18 SI MM NOT_NAMED 1945-03-29 03:00:00 TS -7.63088 76.8305 main 1570 1570 P________PP___ SH121945 -7.62746 76.8449 -1 -7.62746 76.8449 TC -7.63771 76.8015 1 6 260
1945088S08077 1945 18 SI MM NOT_NAMED 1945-03-29 06:00:00 TS -7.70000 76.5000 main 1590 1590 O________OO___ jtwc_sh SH121945 -7.70000 76.5000 -1 -7.70000 76.5000 TC 25 -7.70000 76.5000 1 8 255
1945088S08077 1945 18 SI MM NOT_NAMED 1945-03-29 09:00:00 TS -7.82848 76.0880 main 1614 1614 P________PP___ SH121945 -7.84252 76.0725 -1 -7.84252 76.0725 TC 25 -7.80041 76.1188 1 9 252
1945088S08077 1945 18 SI MM NOT_NAMED 1945-03-29 12:00:00 TS -7.97587 75.6250 main 1653 1653 O________OP___ jtwc_sh SH121945 -8.00000 75.6000 -1 -8.00000 75.6000 TC 25 -7.92762 75.6751 1 9 254
1945088S08077 1945 18 SI MM NOT_NAMED 1945-03-29 15:00:00 TS -8.09361 75.1696 main 1678 1678 P________PP___ SH121945 -8.10743 75.1574 -1 -8.10743 75.1574 TC 25 -8.06599 75.1938 1 9 256
1945088S08077 1945 18 SI MM NOT_NAMED 1945-03-29 18:00:00 TS -8.20000 74.7000 main 1708 1708 O________OO___ jtwc_sh SH121945 -8.20000 74.7000 -1 -8.20000 74.7000 TC 25 -8.20000 74.7000 1 10 258
1945088S08077 1945 18 SI MM NOT_NAMED 1945-03-29 21:00:00 TS -8.30238 74.2066 main 1739 1739 P________PP___ SH121945 -8.29999 74.2000 -1 -8.29999 74.2000 TC 25 -8.30716 74.2199 1 10 258
1945088S08077 1945 18 SI MM NOT_NAMED 1945-03-30 00:00:00 TS -8.40249 73.7116 main 1772 1772 O________OP___ jtwc_sh SH121945 -8.40000 73.7000 -1 -8.40000 73.7000 TC 25 -8.40748 73.7349 1 10 258
1945088S08077 1945 18 SI MM NOT_NAMED 1945-03-30 03:00:00 TS -8.50131 73.2425 main 1805 1805 P________PP___ SH121945 -8.49995 73.2350 -1 -8.49995 73.2350 TC 25 -8.50405 73.2574 1 8 260
1945088S08077 1945 18 SI MM NOT_NAMED 1945-03-30 06:00:00 TS -8.54615 72.8769 reunion main 1820 1820 O____O___OO___ jtwc_sh SH121945 -8.60000 72.8000 -1 -7.90000 73.8000 99 9.90000 -8.60000 72.8000 TC 25 -8.60000 72.8000 1 7 261
1945088S08077 1945 18 SI MM NOT_NAMED 1945-03-30 09:00:00 TS -8.62181 72.5088 main 1850 1850 P____P___PP___ SH121945 -8.69993 72.3925 -1 -8.16171 73.2106 99 -8.69993 72.3925 TC 25 -8.69560 72.3905 1 8 257
1945088S08077 1945 18 SI MM NOT_NAMED 1945-03-30 12:00:00 TS -8.72153 72.1241 main 1881 1881 O____P___OP___ jtwc_sh SH121945 -8.80000 72.0000 -1 -8.41826 72.6206 99 -8.80000 72.0000 TC 25 -8.79203 71.9998 1 8 255
1945088S08077 1945 18 SI MM NOT_NAMED 1945-03-30 15:00:00 TS -8.83939 71.7099 main 1913 1913 P____P___PP___ SH121945 -8.89996 71.6000 -1 -8.66517 72.0306 99 -8.89996 71.6000 TC 25 -8.89247 71.6092 1 9 253
1945088S08077 1945 18 SI MM NOT_NAMED 1945-03-30 18:00:00 TS -8.97450 71.2603 main 1918 1870 O____P___OO___ jtwc_sh SH121945 -9.00000 71.2000 -1 -8.89799 71.4412 99 -9.00000 71.2000 TC 25 -9.00000 71.2000 1 9 253
1945088S08077 1945 18 SI MM NOT_NAMED 1945-03-30 21:00:00 TS -9.10261 70.8181 main 1870 1830 P____P___PP___ SH121945 -9.09237 70.8224 -1 -9.11227 70.8530 99 -9.09237 70.8224 TC 25 -9.11341 70.7748 1 9 254
1945088S08077 1945 18 SI MM NOT_NAMED 1945-03-31 00:00:00 TS -9.23452 70.3477 main 1822 1774 O____P___OP___ jtwc_sh SH121945 -9.20000 70.4000 -1 -9.30362 70.2663 99 -9.20000 70.4000 TC 25 -9.23445 70.3247 1 10 254
1945088S08077 1945 18 SI MM NOT_NAMED 1945-03-31 03:00:00 TS -9.37895 69.8235 main 1767 1720 P____P___PP___ SH121945 -9.34243 69.8875 -1 -9.46765 69.6818 99 -9.34243 69.8875 TC 25 -9.36328 69.8372 1 11 255
1945088S08077 1945 18 SI MM NOT_NAMED 1945-03-31 06:00:00 TS -9.52500 69.2500 reunion main 1720 1657 O____O___OO___ jtwc_sh SH121945 -9.50000 69.3000 -1 -9.60000 69.1000 99 9.90000 -9.50000 69.3000 TC 25 -9.50000 69.3000 1 12 257
1945088S08077 1945 18 SI MM NOT_NAMED 1945-03-31 09:00:00 TS -9.65925 68.6379 main 1650 1597 P____P___PP___ SH121945 -9.64996 68.6650 -1 -9.69829 68.5214 99 -9.64996 68.6650 TC 25 -9.63880 68.7002 1 13 258
1945088S08077 1945 18 SI MM NOT_NAMED 1945-03-31 12:00:00 TS -9.78825 67.9997 main 1597 1544 O____P___OP___ jtwc_sh SH121945 -9.80000 68.0000 -1 -9.76796 67.9465 99 -9.80000 68.0000 TC 25 -9.78505 68.0523 1 13 259
1945088S08077 1945 18 SI MM NOT_NAMED 1945-03-31 15:00:00 TS -9.91373 67.3635 main 1544 1493 P____P___PP___ SH121945 -9.94987 67.3499 -1 -9.81644 67.3758 99 -9.94987 67.3499 TC 25 -9.93873 67.3782 1 13 259
1945088S08077 1945 18 SI MM NOT_NAMED 1945-03-31 18:00:00 TS -10.0378 66.7274 main 1486 1427 O____P___OO___ jtwc_sh SH121945 -10.1000 66.7000 -1 -9.85112 66.8098 99 -10.1000 66.7000 TC 25 -10.1000 66.7000 1 13 259
1945088S08077 1945 18 SI MM NOT_NAMED 1945-03-31 21:00:00 TS -10.1590 66.0946 main 1427 1379 P____P___PP___ SH121945 -10.2424 66.0499 -1 -9.87940 66.2488 99 -10.2424 66.0499 TC 25 -10.2718 66.0298 1 13 259
1945088S08077 1945 18 SI MM NOT_NAMED 1945-04-01 00:00:00 TS -10.2896 65.4640 main 1379 1331 O____P___OP___ jtwc_sh SH121945 -10.4000 65.4000 -1 -9.90870 65.6934 99 -10.4000 65.4000 TC 25 -10.4499 65.3626 1 13 257
1945088S08077 1945 18 SI MM NOT_NAMED 1945-04-01 03:00:00 TS -10.4436 64.8320 main 1325 1276 P____P___PP___ SH121945 -10.6000 64.7350 -1 -9.94643 65.1436 99 -10.6000 64.7350 TC 30 -10.6281 64.7141 1 13 256
1945088S08077 1945 18 SI MM NOT_NAMED 1945-04-01 06:00:00 TS -10.6000 64.2250 reunion main 1271 1232 O____O___OO___ jtwc_sh SH121945 -10.8000 64.1000 -1 -10.0000 64.6000 99 9.90000 -10.8000 64.1000 TC 35 -10.8000 64.1000 2 12 255
1945088S08077 1945 18 SI MM NOT_NAMED 1945-04-01 09:00:00 TS -10.7441 63.6533 main 1232 1180 P____P___PP___ SH121945 -10.9574 63.5274 -1 -10.0971 64.0235 99 -10.9574 63.5274 TC 35 -10.9647 63.5349 2 11 256
1945088S08077 1945 18 SI MM NOT_NAMED 1945-04-01 12:00:00 TS -10.8822 63.1133 main 1180 1145 O____P___OP___ jtwc_sh SH121945 -11.1000 63.0000 -1 -10.2071 63.4485 99 -11.1000 63.0000 TC 35 -11.1218 63.0049 2 11 255
1945088S08077 1945 18 SI MM NOT_NAMED 1945-04-01 15:00:00 TS -11.0275 62.5947 main 1145 1101 P____P___PP___ SH121945 -11.2573 62.5000 -1 -10.3274 62.8815 99 -11.2573 62.5000 TC 35 -11.2680 62.4974 2 11 254
1945088S08077 1945 18 SI MM NOT_NAMED 1945-04-01 18:00:00 TS -11.1639 62.0823 main 1101 1069 O____P___OO___ jtwc_sh SH121945 -11.4000 62.0000 -1 -10.4556 62.3292 99 -11.4000 62.0000 TC 35 -11.4000 62.0000 2 11 256
1945088S08077 1945 18 SI MM NOT_NAMED 1945-04-01 21:00:00 TS -11.2776 61.5378 main 1065 1035 P____P___PP___ SH121945 -11.5075 61.4424 -1 -10.5893 61.7981 99 -11.5075 61.4424 TC 35 -11.5062 61.4682 2 11 258
1945088S08077 1945 18 SI MM NOT_NAMED 1945-04-02 00:00:00 TS -11.3815 61.0106 main 1035 1011 O____P___OP___ jtwc_sh SH121945 -11.6000 60.9000 -1 -10.7262 61.2951 99 -11.6000 60.9000 TC 35 -11.6000 60.9472 2 10 258
1945088S08077 1945 18 SI MM NOT_NAMED 1945-04-02 03:00:00 TS -11.4856 60.5298 main 1008 985 P____P___PP___ SH121945 -11.6924 60.4199 -1 -10.8639 60.8268 99 -11.6924 60.4199 TC 35 -11.6938 60.4526 2 9 256
1945088S08077 1945 18 SI MM NOT_NAMED 1945-04-02 06:00:00 TS -11.6000 60.1000 reunion main 985 964 O____O___OO___ jtwc_sh SH121945 -11.8000 60.0000 -1 -11.0000 60.4000 99 9.90000 -11.8000 60.0000 TC 35 -11.8000 60.0000 2 8 253
1945088S08077 1945 18 SI MM NOT_NAMED 1945-04-02 09:00:00 TS -11.7331 59.7242 main 964 935 P____P___PP___ SH121945 -11.9424 59.6350 -1 -11.1124 60.0202 99 -11.9424 59.6350 TC 35 -11.9352 59.6068 2 8 248
1945088S08077 1945 18 SI MM NOT_NAMED 1945-04-02 12:00:00 TS -11.8771 59.3840 main 935 918 O____P___OP___ jtwc_sh SH121945 -12.1000 59.3000 -1 -11.2238 59.6813 99 -12.1000 59.3000 TC 35 -12.0844 59.2549 2 7 246
1945088S08077 1945 18 SI MM NOT_NAMED 1945-04-02 15:00:00 TS -12.0195 59.0508 main 918 890 P____P___PP___ SH121945 -12.2500 58.9500 -1 -11.3365 59.3778 99 -12.2500 58.9500 TC 35 -12.2415 58.9255 2 7 246
1945088S08077 1945 18 SI MM NOT_NAMED 1945-04-02 18:00:00 TS -12.1632 58.7261 main 890 876 O____P___OO___ jtwc_sh SH121945 -12.4000 58.6000 -1 -11.4528 59.1042 99 -12.4000 58.6000 TC 35 -12.4000 58.6000 2 7 246
1945088S08077 1945 18 SI MM NOT_NAMED 1945-04-02 21:00:00 TS -12.3093 58.3921 main 876 862 P____P___PP___ SH121945 -12.5500 58.2500 -1 -11.5751 58.8551 99 -12.5500 58.2500 TC 35 -12.5623 58.2136 2 7 246
1945088S08077 1945 18 SI MM NOT_NAMED 1945-04-03 00:00:00 TS -12.4571 58.0644 main 851 839 O____P___OP___ jtwc_sh SH121945 -12.7000 57.9000 -1 -11.7055 58.6250 99 -12.7000 57.9000 TC 35 -12.7227 57.8327 2 7 245
1945088S08077 1945 18 SI MM NOT_NAMED 1945-04-03 03:00:00 TS -12.6083 57.7373 main 830 805 P____P___PP___ SH121945 -12.8575 57.5275 -1 -11.8464 58.4085 99 -12.8575 57.5275 TC 35 -12.8717 57.4855 2 7 244
1945088S08077 1945 18 SI MM NOT_NAMED 1945-04-03 06:00:00 TS -12.7500 57.4500 reunion main 805 767 O____O___OO___ jtwc_sh SH121945 -13.0000 57.2000 -1 -12.0000 58.2000 99 9.90000 -13.0000 57.2000 TC 35 -13.0000 57.2000 2 6 242
1945088S08077 1945 18 SI MM NOT_NAMED 1945-04-03 09:00:00 TS -12.8735 57.2173 main 767 753 P____P___PP___ SH121945 -13.1150 56.9550 -1 -12.1758 57.9531 99 -13.1150 56.9550 TC 35 -13.0882 57.0060 2 5 240
1945088S08077 1945 18 SI MM NOT_NAMED 1945-04-03 12:00:00 TS -12.9805 57.0478 main 743 729 O____P___OP___ jtwc_sh SH121945 -13.2000 56.8000 -1 -12.3648 57.7166 99 -13.2000 56.8000 TC 35 -13.1572 56.8747 2 3 234
1945088S08077 1945 18 SI MM NOT_NAMED 1945-04-03 15:00:00 TS -13.0716 56.9357 main 729 725 P____P___PP___ SH121945 -13.2500 56.7350 -1 -12.5639 57.4919 99 -13.2500 56.7350 TC 35 -13.2226 56.7811 2 3 226
1945088S08077 1945 18 SI MM NOT_NAMED 1945-04-03 18:00:00 TS -13.1675 56.8451 main 715 701 O____P___OO___ jtwc_sh SH121945 -13.3000 56.7000 -1 -12.7698 57.2805 99 -13.3000 56.7000 TC 35 -13.3000 56.7000 2 3 224
1945088S08077 1945 18 SI MM NOT_NAMED 1945-04-03 21:00:00 TS -13.2900 56.7220 main 701 687 P____P___PP___ SH121945 -13.3850 56.6075 -1 -12.9796 57.0841 99 -13.3850 56.6075 TC 35 -13.4106 56.5888 2 4 222
1945088S08077 1945 18 SI MM NOT_NAMED 1945-04-04 00:00:00 TS -13.4312 56.5973 main 687 670 O____P___OP___ jtwc_sh SH121945 -13.5000 56.5000 -1 -13.1899 56.9041 99 -13.5000 56.5000 TC 35 -13.5350 56.4850 2 4 218
1945088S08077 1945 18 SI MM NOT_NAMED 1945-04-04 03:00:00 TS -13.5912 56.4827 main 670 657 P____P___PP___ SH121945 -13.6500 56.4000 -1 -13.3978 56.7422 99 -13.6500 56.4000 TC 35 -13.6669 56.3888 2 4 214
1945088S08077 1945 18 SI MM NOT_NAMED 1945-04-04 06:00:00 TS -13.7500 56.3750 reunion main 657 641 O____O___OO___ jtwc_sh SH121945 -13.8000 56.3000 -1 -13.6000 56.6000 99 9.90000 -13.8000 56.3000 TC 35 -13.8000 56.3000 2 4 216
1945088S08077 1945 18 SI MM NOT_NAMED 1945-04-04 09:00:00 TS -13.8716 56.2692 main 641 628 P____P___PP___ SH121945 -13.9000 56.1925 -1 -13.7535 56.4779 99 -13.9000 56.1925 TC 35 -13.9331 56.2137 2 3 218
1945088S08077 1945 18 SI MM NOT_NAMED 1945-04-04 12:00:00 TS -13.9910 56.1780 main 628 615 O____P___OP___ jtwc_sh SH121945 -14.0000 56.1000 -1 -13.8991 56.3771 99 -14.0000 56.1000 TC 35 -14.0650 56.1350 2 3 210
1945088S08077 1945 18 SI MM NOT_NAMED 1945-04-04 15:00:00 TS -14.1370 56.1106 main 615 610 P____P___PP___ SH121945 -14.1575 56.0425 -1 -14.0438 56.2936 99 -14.1575 56.0425 TC 35 -14.1894 56.0637 2 3 203
1945088S08077 1945 18 SI MM NOT_NAMED 1945-04-04 18:00:00 TS -14.2737 56.0559 main 610 600 O____P___OO___ jtwc_sh SH121945 -14.3000 56.0000 -1 -14.1946 56.2236 99 -14.3000 56.0000 TC 35 -14.3000 56.0000 2 2 206
1945088S08077 1945 18 SI MM NOT_NAMED 1945-04-04 21:00:00 TS -14.3526 56.0045 main 598 598 P____P___PP___ SH121945 -14.3575 55.9500 -1 -14.3587 56.1631 99 -14.3575 55.9500 TC 35 -14.3365 55.9548 2 2 212
1945088S08077 1945 18 SI MM NOT_NAMED 1945-04-05 00:00:00 TS -14.4276 55.9557 main 598 585 O____P___OP___ jtwc_sh SH121945 -14.4000 55.9000 -1 -14.5429 56.1083 99 -14.4000 55.9000 TC 35 -14.3675 55.9146 2 2 207
1945088S08077 1945 18 SI MM NOT_NAMED 1945-04-05 03:00:00 TS -14.5260 55.9131 main 585 583 P____P___PP___ SH121945 -14.4550 55.8649 -1 -14.7544 56.0553 99 -14.4550 55.8649 TC 35 -14.4397 55.8672 2 3 200
1945088S08077 1945 18 SI MM NOT_NAMED 1945-04-05 06:00:00 TS -14.7000 55.8500 reunion main 583 558 O____O___OO___ jtwc_sh SH121945 -14.6000 55.8000 -1 -15.0000 56.0000 99 9.90000 -14.6000 55.8000 TC 35 -14.6000 55.8000 2 5 201
1945088S08077 1945 18 SI MM NOT_NAMED 1945-04-05 09:00:00 TS -15.0005 55.7251 main 558 546 P____P___PP___ SH121945 -14.8975 55.6576 -1 -15.3045 55.9046 99 -14.8975 55.6576 TC 35 -14.9026 55.6807 2 7 200
1945088S08077 1945 18 SI MM NOT_NAMED 1945-04-05 12:00:00 TS -15.3846 55.5874 main 546 525 O____P___OP___ jtwc_sh SH121945 -15.3000 55.5000 -1 -15.6433 55.8067 99 -15.3000 55.5000 TC 35 -15.2952 55.5431 2 8 197
1945088S08077 1945 18 SI MM NOT_NAMED 1945-04-05 15:00:00 TS -15.8048 55.4723 main 525 489 P____P___PP___ SH121945 -15.7350 55.3850 -1 -16.0092 55.7103 99 -15.7350 55.3850 TC 35 -15.7401 55.4089 2 9 193
1945088S08077 1945 18 SI MM NOT_NAMED 1945-04-05 18:00:00 TS -16.2488 55.3799 main 489 445 O____P___OO___ jtwc_sh SH121945 -16.2000 55.3000 -1 -16.3953 55.6197 99 -16.2000 55.3000 TC 35 -16.2000 55.3000 2 9 190
1945088S08077 1945 18 SI MM NOT_NAMED 1945-04-05 21:00:00 TS -16.6828 55.3127 main 445 407 P____P___PP___ SH121945 -16.6575 55.2350 -1 -16.7944 55.5390 99 -16.6575 55.2350 TC 35 -16.6218 55.2419 2 9 187
1945088S08077 1945 18 SI MM NOT_NAMED 1945-04-06 00:00:00 TS -17.1124 55.2712 main 407 371 O____P___OP___ jtwc_sh SH121945 -17.1000 55.2000 -1 -17.1996 55.4726 99 -17.1000 55.2000 TC 35 -17.0499 55.2122 2 8 184
1945088S08077 1945 18 SI MM NOT_NAMED 1945-04-06 03:00:00 TS -17.5242 55.2528 main 371 337 P____P___PP___ SH121945 -17.5075 55.1924 -1 -17.6038 55.4248 99 -17.5075 55.1924 TC 35 -17.4781 55.2014 2 8 181
1945088S08077 1945 18 SI MM NOT_NAMED 1945-04-06 06:00:00 TS -17.9250 55.2500 reunion main 337 302 O____O___OO___ jtwc_sh SH121945 -17.9000 55.2000 -1 -18.0000 55.4000 99 9.90000 -17.9000 55.2000 TC 35 -17.9000 55.2000 2 8 0
1945088S08077 1945 18 SI MM NOT_NAMED 1945-04-06 09:00:00 TS -18.3137 55.2361 main 302 257 P____P___PP___ SH121945 -18.3000 55.2000 -1 -18.3437 55.3796 99 -18.3000 55.2000 TC 35 -18.3112 55.1648 2 8 181
1945088S08077 1945 18 SI MM NOT_NAMED 1945-04-06 12:00:00 TS -18.6990 55.2298 main 257 212 O____P___OP___ jtwc_sh SH121945 -18.7000 55.2000 -1 -18.6813 55.3786 99 -18.7000 55.2000 TC 35 -18.7149 55.1406 2 8 182
1945088S08077 1945 18 SI MM NOT_NAMED 1945-04-06 15:00:00 TS -19.0857 55.2289 main 212 178 P____P___PP___ SH121945 -19.1075 55.1851 -1 -19.0167 55.3992 99 -19.1075 55.1851 TC 35 -19.1111 55.1462 2 8 178
1945088S08077 1945 18 SI MM NOT_NAMED 1945-04-06 18:00:00 TS -19.4635 55.2608 main 167 134 O____P___OO___ jtwc_sh SH121945 -19.5000 55.2000 -1 -19.3540 55.4434 99 -19.5000 55.2000 TC 35 -19.5000 55.2000 2 7 173
1945088S08077 1945 18 SI MM NOT_NAMED 1945-04-06 21:00:00 TS -19.8146 55.3319 main 134 100 P____P___PP___ SH121945 -19.8500 55.2626 -1 -19.6970 55.5134 99 -19.8500 55.2626 TC 35 -19.8616 55.2888 2 7 165
1945088S08077 1945 18 SI MM NOT_NAMED 1945-04-07 00:00:00 TS -20.1673 55.4606 main 89 55 O____P___OP___ jtwc_sh SH121945 -20.2000 55.4000 -1 -20.0497 55.6113 99 -20.2000 55.4000 TC 35 -20.2196 55.4312 2 8 158
1945088S08077 1945 18 SI MM NOT_NAMED 1945-04-07 03:00:00 TS -20.5409 55.6457 main 55 15 P____P___PP___ SH121945 -20.5774 55.6052 -1 -20.4161 55.7394 99 -20.5774 55.6052 TC 35 -20.5927 55.6330 2 9 152
1945088S08077 1945 18 SI MM NOT_NAMED 1945-04-07 06:00:00 TS -20.9500 55.9000 reunion main 23 15 O____O___OO___ jtwc_sh SH121945 -21.0000 55.9000 -1 -20.8000 55.9000 99 9.90000 -21.0000 55.9000 TC 35 -21.0000 55.9000 2 10 149
1945088S08077 1945 18 SI MM NOT_NAMED 1945-04-07 09:00:00 TS -21.4239 56.2239 main 42 42 P____P___PP___ SH121945 -21.4851 56.2775 -1 -21.2614 56.1137 99 -21.4851 56.2775 TC 35 -21.4643 56.2270 2 12 146
1945088S08077 1945 18 SI MM NOT_NAMED 1945-04-07 12:00:00 TS -21.9271 56.5959 main 106 106 O____P___OP___ jtwc_sh SH121945 -22.0000 56.7000 -1 -21.7455 56.3661 99 -22.0000 56.7000 TC 35 -21.9627 56.6174 2 12 145
1945088S08077 1945 18 SI MM NOT_NAMED 1945-04-07 15:00:00 TS -22.4297 56.9705 main 174 174 P____P___PP___ SH121945 -22.4998 57.0929 -1 -22.2394 56.6470 99 -22.4998 57.0929 TC 35 -22.4798 57.0492 2 12 145
1945088S08077 1945 18 SI MM NOT_NAMED 1945-04-07 18:00:00 TS -22.9325 57.3614 main 243 243 O____P___OO___ jtwc_sh SH121945 -23.0000 57.5000 -1 -22.7299 56.9458 99 -23.0000 57.5000 TC 35 -23.0000 57.5000 2 12 144
1945088S08077 1945 18 SI MM NOT_NAMED 1945-04-07 21:00:00 TS -23.4288 57.7721 main 312 312 P____P___PP___ SH121945 -23.4999 57.9428 -1 -23.2041 57.2517 99 -23.4999 57.9428 TC 35 -23.5112 57.9511 2 12 143
1945088S08077 1945 18 SI MM NOT_NAMED 1945-04-08 00:00:00 TS -23.8951 58.1397 main 374 374 O____P___OP___ jtwc_sh SH121945 -24.0000 58.4000 -1 -23.6491 57.5536 99 -24.0000 58.4000 TC 35 -24.0132 58.4003 2 11 145
1945088S08077 1945 18 SI MM NOT_NAMED 1945-04-08 03:00:00 TS -24.3226 58.4467 main 428 428 P____P___PP___ SH121945 -24.5002 58.8518 -1 -24.0519 57.8403 99 -24.5002 58.8518 TC 35 -24.5086 58.8493 2 9 150
1945088S08077 1945 18 SI MM NOT_NAMED 1945-04-08 06:00:00 TS -24.6571 58.6143 reunion main 475 458 O____O___OO___ jtwc_sh SH121945 -25.0000 59.3000 -1 -24.4000 58.1000 99 9.90000 -25.0000 59.3000 TC 35 -25.0000 59.3000 2 4 198
1945088S08077 1945 18 SI MM NOT_NAMED 1945-04-08 09:00:00 NR -24.6842 58.3238 main 458 458 _____P________ SH121945 -1 -24.6842 58.3238 99 TC 2 3 200
1945088S08077 1945 18 SI MM NOT_NAMED 1945-04-08 12:00:00 NR -24.9096 58.5134 main 487 487 _____P________ -1 -24.9096 58.5134 99 2 5 142
1945088S08077 1945 18 SI MM NOT_NAMED 1945-04-08 15:00:00 NR -25.0846 58.6735 main 517 517 _____P________ -1 -25.0846 58.6735 99 2 4 139
1945088S08077 1945 18 SI MM NOT_NAMED 1945-04-08 18:00:00 NR -25.2178 58.8087 main 532 532 _____P________ -1 -25.2178 58.8087 99 3 136
1945088S08077 1945 18 SI MM NOT_NAMED 1945-04-08 21:00:00 NR -25.3176 58.9241 main 547 547 _____P________ -1 -25.3176 58.9241 99 3 132
1945088S08077 1945 18 SI MM NOT_NAMED 1945-04-09 00:00:00 NR -25.3923 59.0244 main 562 562 _____P________ -1 -25.3923 59.0244 99 2 128
1945088S08077 1945 18 SI MM NOT_NAMED 1945-04-09 03:00:00 NR -25.4503 59.1147 main 576 576 _____P________ -1 -25.4503 59.1147 99 2 125
1945088S08077 1945 18 SI MM NOT_NAMED 1945-04-09 06:00:00 NR -25.5000 59.2000 reunion main 579 _____O________ -1 -25.5000 59.2000 99 9.90000 2 121

About IBTrACS Database

This database is a web-friendly format of International Best Track Archive for Climate Stewardship (IBTrACS), a global best track data archive curated by NOAA dating back to 1842.

Updated: 2021-12-06